Time;durP1;ratioP1;P1;durP2;ratioP2;P2;SDS_P1;SDS_P2;PMS_P1;PMS_P2;Temp;Humidity;BMP_temperature;BMP_pressure;BME280_temperature;BME280_humidity;BME280_pressure;Samples;Min_cycle;Max_cycle;Signal;HPM_P1;HPM_P2
2023/10/22 00:01:32;;;;;;;1.17;1.17;;;;;;;18.90;96.43;99348.06;5112013;27;20357;-67
2023/10/22 00:03:58;;;;;;;2.63;1.37;;;;;;;18.92;96.59;99361.78;5112437;28;20657;-67
2023/10/22 00:06:25;;;;;;;1.10;1.10;;;;;;;18.91;97.34;99367.88;5112134;28;20204;-67
2023/10/22 00:08:52;;;;;;;1.33;1.33;;;;;;;18.75;97.85;99348.09;5112111;28;20205;-67
2023/10/22 00:11:19;;;;;;;1.37;1.27;;;;;;;18.72;98.43;99348.31;5112265;28;20199;-67
2023/10/22 00:13:45;;;;;;;1.47;1.40;;;;;;;18.64;99.25;99345.34;5112280;28;20199;-67
2023/10/22 00:16:12;;;;;;;1.20;1.20;;;;;;;18.68;98.77;99351.19;5110409;28;20225;-67
2023/10/22 00:18:40;;;;;;;1.30;1.30;;;;;;;18.64;99.40;99349.72;5112102;28;20242;-67
2023/10/22 00:21:08;;;;;;;1.60;1.50;;;;;;;18.68;99.27;99357.22;5111876;28;20248;-67
2023/10/22 00:23:35;;;;;;;1.60;1.50;;;;;;;18.73;98.36;99338.75;5106748;28;20232;-67
2023/10/22 00:26:02;;;;;;;1.57;1.53;;;;;;;18.76;98.99;99346.34;5107135;28;20202;-66
2023/10/22 00:28:29;;;;;;;1.77;1.67;;;;;;;18.73;99.81;99347.38;5111524;28;20221;-67
2023/10/22 00:30:56;;;;;;;2.23;1.43;;;;;;;18.63;100.00;99333.31;5111827;28;20195;-67
2023/10/22 00:33:23;;;;;;;1.50;1.50;;;;;;;18.59;100.00;99331.84;5111523;28;20237;-67
2023/10/22 00:35:56;;;;;;;1.67;1.67;;;;;;;18.58;100.00;99343.16;5111443;28;20268;-67
2023/10/22 00:38:23;;;;;;;1.40;1.40;;;;;;;18.65;100.00;99343.59;5110610;28;20238;-67
2023/10/22 00:40:50;;;;;;;6.77;1.63;;;;;;;18.68;100.00;99344.22;5111712;28;20205;-67
2023/10/22 00:43:17;;;;;;;5.87;1.83;;;;;;;18.70;100.00;99334.59;5111412;28;20729;-67
2023/10/22 00:45:45;;;;;;;3.30;2.07;;;;;;;18.66;100.00;99337.47;5111826;28;20663;-67
2023/10/22 00:48:12;;;;;;;1.27;1.27;;;;;;;18.58;100.00;99327.56;5111353;28;20253;-67
2023/10/22 00:50:39;;;;;;;2.70;1.67;;;;;;;18.62;100.00;99334.25;5092132;28;20738;-67
2023/10/22 00:53:07;;;;;;;1.30;1.20;;;;;;;18.62;100.00;99329.03;5091118;28;20257;-66
2023/10/22 00:55:37;;;;;;;1.87;1.47;;;;;;;18.62;100.00;99334.25;5090958;28;20195;-67
2023/10/22 00:58:05;;;;;;;1.40;1.30;;;;;;;18.57;100.00;99332.88;5091219;28;20200;-67
2023/10/22 01:00:32;;;;;;;2.27;1.37;;;;;;;18.63;100.00;99332.47;5105516;28;20211;-67
2023/10/22 01:02:59;;;;;;;1.93;1.23;;;;;;;18.61;100.00;99353.34;5111293;28;20192;-67
2023/10/22 01:05:26;;;;;;;2.30;2.10;;;;;;;18.67;100.00;99349.53;5111378;28;20331;-67
2023/10/22 01:07:53;;;;;;;1.40;1.40;;;;;;;18.66;100.00;99340.91;5111247;28;20202;-67
2023/10/22 01:10:21;;;;;;;1.63;1.53;;;;;;;18.75;100.00;99337.72;5110983;28;20584;-67
2023/10/22 01:12:48;;;;;;;1.97;1.60;;;;;;;18.74;100.00;99341.22;5111127;28;20238;-67
2023/10/22 01:15:14;;;;;;;3.57;1.50;;;;;;;18.77;100.00;99342.81;5111315;28;20198;-66
2023/10/22 01:17:41;;;;;;;2.47;2.20;;;;;;;18.79;100.00;99341.78;5092621;28;20224;-67
2023/10/22 01:20:10;;;;;;;2.07;1.97;;;;;;;18.82;100.00;99346.78;5090872;28;20231;-68
2023/10/22 01:22:37;;;;;;;1.27;1.27;;;;;;;18.83;100.00;99342.44;5099361;28;20190;-67
2023/10/22 01:25:06;;;;;;;1.83;1.73;;;;;;;18.84;100.00;99347.50;5111355;28;20261;-67
2023/10/22 01:27:33;;;;;;;5.93;1.77;;;;;;;18.88;100.00;99343.78;5111218;28;20671;-67
2023/10/22 01:30:00;;;;;;;2.57;2.43;;;;;;;18.84;100.00;99347.50;5110903;28;20244;-67
2023/10/22 01:32:30;;;;;;;6.30;1.73;;;;;;;18.80;100.00;99346.03;5107279;28;20204;-66
2023/10/22 01:34:57;;;;;;;1.47;1.47;;;;;;;18.85;100.00;99358.72;5110335;28;20240;-67
2023/10/22 01:37:24;;;;;;;2.13;1.80;;;;;;;18.88;100.00;99361.97;5111002;28;20259;-67
2023/10/22 01:39:51;;;;;;;1.30;1.30;;;;;;;18.88;100.00;99364.56;5110617;28;20227;-67
2023/10/22 01:42:19;;;;;;;2.10;2.00;;;;;;;18.88;100.00;99358.53;5111098;28;20293;-67
2023/10/22 01:44:46;;;;;;;1.80;1.20;;;;;;;18.90;99.98;99355.84;5110744;28;20207;-67
2023/10/22 01:47:13;;;;;;;1.70;1.60;;;;;;;18.88;100.00;99354.16;5111015;28;20249;-67
2023/10/22 01:49:40;;;;;;;1.50;1.40;;;;;;;18.90;100.00;99345.47;5110796;28;20288;-67
2023/10/22 01:52:07;;;;;;;1.53;1.30;;;;;;;18.84;100.00;99337.13;5110571;28;20201;-67
2023/10/22 01:54:34;;;;;;;1.57;1.57;;;;;;;18.80;100.00;99334.84;5111231;28;20670;-67
2023/10/22 01:57:01;;;;;;;2.07;1.97;;;;;;;18.84;100.00;99341.47;5110497;28;20198;-67
2023/10/22 01:59:29;;;;;;;1.80;1.53;;;;;;;18.83;100.00;99332.88;5108622;28;20228;-67
2023/10/22 02:01:56;;;;;;;2.23;2.13;;;;;;;18.77;99.82;99320.25;5109991;28;20640;-67
2023/10/22 02:04:23;;;;;;;1.47;1.37;;;;;;;18.58;99.95;99316.38;5110741;28;20203;-67
2023/10/22 02:06:50;;;;;;;3.13;1.93;;;;;;;18.50;100.00;99329.84;5111091;28;20706;-67
2023/10/22 02:09:17;;;;;;;1.60;1.57;;;;;;;18.42;100.00;99326.84;5110597;28;20194;-67
2023/10/22 02:11:44;;;;;;;1.33;1.33;;;;;;;18.42;100.00;99313.88;5096726;28;20560;-67
2023/10/22 02:14:11;;;;;;;1.80;1.70;;;;;;;18.29;100.00;99307.78;5090561;28;20197;-67
2023/10/22 02:16:39;;;;;;;1.60;1.53;;;;;;;18.26;100.00;99319.19;5094037;28;20229;-67
2023/10/22 02:19:06;;;;;;;1.77;1.67;;;;;;;18.31;100.00;99327.53;5093555;28;20219;-67
2023/10/22 02:21:33;;;;;;;1.40;1.30;;;;;;;18.41;100.00;99348.56;5109153;28;20574;-67
2023/10/22 02:23:59;;;;;;;2.20;2.10;;;;;;;18.44;100.00;99345.78;5113946;28;20199;-66
2023/10/22 02:26:26;;;;;;;1.50;1.50;;;;;;;18.50;100.00;99349.75;5108717;28;20208;-67
2023/10/22 02:28:53;;;;;;;1.33;1.33;;;;;;;18.54;100.00;99354.69;5114173;27;20199;-67
2023/10/22 02:31:19;;;;;;;6.53;1.70;;;;;;;18.56;100.00;99373.56;5109176;28;20199;-67
2023/10/22 02:33:48;;;;;;;3.50;1.87;;;;;;;18.57;100.00;99375.25;5114301;28;20200;-67
2023/10/22 02:36:14;;;;;;;1.70;1.70;;;;;;;18.56;100.00;99368.38;5113731;28;20252;-67
2023/10/22 02:38:41;;;;;;;1.67;1.57;;;;;;;18.57;100.00;99364.88;5114113;28;20199;-68
2023/10/22 02:41:08;;;;;;;5.97;1.70;;;;;;;18.47;100.00;99349.94;5113636;28;20237;-66
2023/10/22 02:43:34;;;;;;;1.77;1.67;;;;;;;18.58;100.00;99360.50;5113946;28;20631;-67
2023/10/22 02:46:01;;;;;;;2.40;1.80;;;;;;;18.53;100.00;99353.00;5113770;27;20252;-67
2023/10/22 02:48:28;;;;;;;2.00;1.90;;;;;;;18.42;100.00;99352.81;5113688;28;21711;-67
2023/10/22 02:50:56;;;;;;;1.43;1.43;;;;;;;18.33;100.00;99345.59;5113883;28;20191;-67
2023/10/22 02:53:23;;;;;;;1.40;1.30;;;;;;;18.32;100.00;99344.75;5102426;28;20291;-67
2023/10/22 02:55:59;;;;;;;6.83;1.70;;;;;;;18.25;100.00;99347.84;5101372;28;20621;-67
2023/10/22 02:58:26;;;;;;;3.20;2.17;;;;;;;18.20;100.00;99340.34;5113262;28;20238;-67
2023/10/22 03:00:55;;;;;;;3.03;1.47;;;;;;;18.23;100.00;99340.16;5113593;28;20207;-67
2023/10/22 03:03:21;;;;;;;2.13;1.87;;;;;;;18.27;100.00;99358.97;5113172;28;20202;-67
2023/10/22 03:05:48;;;;;;;1.83;1.73;;;;;;;18.31;100.00;99363.03;5113247;27;20275;-67
2023/10/22 03:08:16;;;;;;;1.70;1.60;;;;;;;18.33;100.00;99361.16;5113482;28;20202;-67
2023/10/22 03:10:43;;;;;;;1.93;1.83;;;;;;;18.35;100.00;99359.34;5112221;28;20195;-67
2023/10/22 03:13:10;;;;;;;1.90;1.77;;;;;;;18.36;100.00;99358.38;5113296;28;20663;-67
2023/10/22 03:15:37;;;;;;;2.10;2.00;;;;;;;18.40;100.00;99370.25;5113180;28;20195;-67
2023/10/22 03:18:03;;;;;;;5.23;1.93;;;;;;;18.42;100.00;99368.38;5113329;28;20245;-67
2023/10/22 03:20:32;;;;;;;2.43;2.23;;;;;;;18.45;100.00;99363.00;5112995;28;20221;-67
2023/10/22 03:23:01;;;;;;;1.63;1.53;;;;;;;18.32;100.00;99349.94;5113256;28;20202;-67
2023/10/22 03:25:29;;;;;;;1.60;1.53;;;;;;;18.25;100.00;99340.06;5112839;28;20207;-67
2023/10/22 03:27:56;;;;;;;1.83;1.73;;;;;;;18.18;100.00;99325.81;5113092;28;20283;-67
2023/10/22 03:30:23;;;;;;;1.87;1.73;;;;;;;18.27;100.00;99343.38;5111049;28;20195;-67
2023/10/22 03:32:50;;;;;;;1.80;1.70;;;;;;;18.18;100.00;99315.44;5112827;28;20261;-67
2023/10/22 03:35:17;;;;;;;1.83;1.80;;;;;;;18.26;100.00;99333.94;5113262;28;20204;-67
2023/10/22 03:37:43;;;;;;;2.37;1.63;;;;;;;18.23;100.00;99324.56;5112722;28;20193;-67
2023/10/22 03:40:10;;;;;;;1.30;1.30;;;;;;;18.19;99.86;99328.28;5112758;28;20216;-67
2023/10/22 03:42:39;;;;;;;1.53;1.53;;;;;;;18.20;99.76;99334.31;5112078;28;20297;-67
2023/10/22 03:45:07;;;;;;;2.07;1.47;;;;;;;18.08;99.77;99314.31;5112714;28;20200;-67
2023/10/22 03:47:33;;;;;;;1.47;1.47;;;;;;;18.17;99.65;99339.69;5112630;28;20720;-67
2023/10/22 03:50:00;;;;;;;5.57;1.20;;;;;;;18.19;99.56;99348.25;5112839;28;20194;-67
2023/10/22 03:52:27;;;;;;;5.33;1.77;;;;;;;18.19;99.85;99356.03;5112599;28;20236;-67
2023/10/22 03:54:53;;;;;;;5.40;1.60;;;;;;;18.15;99.75;99346.75;5111323;28;20622;-67
2023/10/22 03:57:20;;;;;;;1.53;1.43;;;;;;;18.19;99.73;99358.63;5112497;28;20267;-67
2023/10/22 03:59:48;;;;;;;1.97;1.87;;;;;;;18.17;99.53;99358.69;5112080;28;20219;-67
2023/10/22 04:02:15;;;;;;;5.53;1.87;;;;;;;18.17;99.22;99363.03;5112154;28;20663;-67
2023/10/22 04:04:42;;;;;;;1.93;1.87;;;;;;;18.16;99.12;99348.41;5112094;28;20663;-67
2023/10/22 04:07:10;;;;;;;1.80;1.70;;;;;;;18.10;98.79;99365.19;5112412;28;20199;-67
2023/10/22 04:09:37;;;;;;;2.00;1.93;;;;;;;18.10;98.39;99343.59;5112507;28;20658;-67
2023/10/22 04:12:04;;;;;;;1.53;1.50;;;;;;;18.03;98.32;99363.06;5112217;28;20204;-67
2023/10/22 04:14:34;;;;;;;1.20;1.20;;;;;;;17.97;98.57;99343.50;5112695;28;20208;-67
2023/10/22 04:17:02;;;;;;;1.83;1.83;;;;;;;17.97;99.00;99346.09;5106270;28;20227;-67
2023/10/22 04:19:29;;;;;;;2.20;1.77;;;;;;;17.98;98.72;99331.38;5106104;28;20206;-67
2023/10/22 04:21:55;;;;;;;1.60;1.50;;;;;;;17.83;99.40;99330.56;5091336;28;20203;-67
2023/10/22 04:24:23;;;;;;;1.17;1.03;;;;;;;17.57;100.00;99297.59;5092019;28;20207;-67
2023/10/22 04:26:50;;;;;;;2.63;1.37;;;;;;;17.69;100.00;99323.63;5104959;28;20199;-67
2023/10/22 04:29:16;;;;;;;1.77;1.67;;;;;;;17.63;100.00;99298.06;5111985;28;20191;-67
2023/10/22 04:31:43;;;;;;;2.10;2.00;;;;;;;17.58;100.00;99294.91;5109750;28;20582;-67
2023/10/22 04:34:11;;;;;;;3.03;1.70;;;;;;;17.61;100.00;99310.28;5091437;28;20191;-67
2023/10/22 04:36:38;;;;;;;6.10;1.47;;;;;;;17.66;100.00;99302.22;5106308;28;21091;-67
2023/10/22 04:39:05;;;;;;;2.30;2.20;;;;;;;17.65;100.00;99308.34;5111478;28;20203;-67
2023/10/22 04:41:31;;;;;;;1.83;1.43;;;;;;;17.59;100.00;99306.94;5111780;28;20210;-67
2023/10/22 04:43:58;;;;;;;1.47;1.43;;;;;;;17.56;100.00;99301.94;5098026;28;20265;-67
2023/10/22 04:46:26;;;;;;;2.20;1.60;;;;;;;17.74;100.00;99334.53;5097840;28;20199;-67
2023/10/22 04:48:54;;;;;;;2.70;2.60;;;;;;;17.77;100.00;99347.31;5091221;28;20195;-68
2023/10/22 04:51:23;;;;;;;1.60;1.60;;;;;;;17.79;100.00;99340.28;5091216;28;20224;-67
2023/10/22 04:53:50;;;;;;;1.87;1.60;;;;;;;17.82;100.00;99350.47;5091343;28;20290;-67
2023/10/22 04:56:17;;;;;;;1.80;1.77;;;;;;;17.79;100.00;99353.25;5091135;28;20207;-67
2023/10/22 04:58:44;;;;;;;1.60;1.50;;;;;;;17.81;99.66;99348.81;5091370;28;20196;-67
2023/10/22 05:01:10;;;;;;;2.10;1.77;;;;;;;17.73;99.75;99345.84;5090654;28;20215;-67
2023/10/22 05:03:37;;;;;;;1.77;1.67;;;;;;;17.61;99.54;99356.94;5099952;28;20195;-67
2023/10/22 05:06:06;;;;;;;4.57;1.63;;;;;;;17.52;99.88;99362.63;5111718;28;20190;-67
2023/10/22 05:08:35;;;;;;;1.67;1.67;;;;;;;17.39;100.00;99377.25;5111812;28;20191;-67
2023/10/22 05:11:05;;;;;;;2.40;2.17;;;;;;;17.21;100.00;99383.50;5111342;28;20210;-67
2023/10/22 05:13:32;;;;;;;1.60;1.50;;;;;;;17.02;100.00;99382.88;5111507;28;20199;-67
2023/10/22 05:15:59;;;;;;;1.40;1.30;;;;;;;16.99;100.00;99393.41;5111032;28;20218;-67
2023/10/22 05:18:26;;;;;;;3.23;3.10;;;;;;;17.09;100.00;99394.56;5110999;28;20198;-67
2023/10/22 05:20:53;;;;;;;14.13;5.87;;;;;;;17.17;100.00;99394.94;5111245;28;20206;-67
2023/10/22 05:23:20;;;;;;;13.70;7.13;;;;;;;17.23;100.00;99408.38;5110987;28;20195;-67
2023/10/22 05:25:48;;;;;;;9.73;4.40;;;;;;;17.28;100.00;99405.53;5111096;28;20644;-67
2023/10/22 05:28:15;;;;;;;5.80;2.30;;;;;;;17.33;100.00;99406.09;5101426;28;20253;-67
2023/10/22 05:30:41;;;;;;;1.50;1.50;;;;;;;17.30;100.00;99414.06;5111204;28;20264;-67
2023/10/22 05:33:08;;;;;;;1.77;1.67;;;;;;;17.28;100.00;99415.91;5111075;28;20198;-67
2023/10/22 05:35:36;;;;;;;1.73;1.63;;;;;;;17.39;99.81;99429.06;5110988;28;20240;-67
2023/10/22 05:38:03;;;;;;;1.80;1.70;;;;;;;17.30;100.00;99409.72;5111263;28;20199;-67
2023/10/22 05:40:36;;;;;;;1.70;1.60;;;;;;;17.28;100.00;99416.75;5109482;28;20215;-67
2023/10/22 05:43:05;;;;;;;4.80;2.80;;;;;;;17.26;100.00;99417.72;5111055;28;20205;-67
2023/10/22 05:45:32;;;;;;;1.20;1.20;;;;;;;17.20;100.00;99412.91;5110617;28;20202;-67
2023/10/22 05:47:58;;;;;;;1.73;1.63;;;;;;;17.24;100.00;99415.25;5110409;28;20209;-67
2023/10/22 05:50:25;;;;;;;2.90;2.77;;;;;;;17.16;100.00;99416.59;5112509;28;20251;-67
2023/10/22 05:52:52;;;;;;;2.93;1.97;;;;;;;17.16;100.00;99421.75;5115185;28;20679;-67
2023/10/22 05:55:19;;;;;;;2.57;2.37;;;;;;;17.20;100.00;99410.31;5114955;28;20203;-67
2023/10/22 05:57:47;;;;;;;2.43;2.17;;;;;;;17.15;100.00;99414.94;5114674;27;20235;-67
2023/10/22 06:00:15;;;;;;;1.47;1.47;;;;;;;17.22;100.00;99411.09;5111196;28;20215;-67
2023/10/22 06:02:43;;;;;;;2.30;2.10;;;;;;;17.22;100.00;99411.88;5113495;28;20201;-67
2023/10/22 06:05:12;;;;;;;1.97;1.87;;;;;;;17.26;100.00;99433.28;5114858;28;20198;-67
2023/10/22 06:07:39;;;;;;;2.10;2.00;;;;;;;17.31;100.00;99420.91;5114405;28;20202;-67
2023/10/22 06:10:06;;;;;;;3.50;2.27;;;;;;;17.38;100.00;99421.41;5114663;28;20198;-67
2023/10/22 06:12:33;;;;;;;1.73;1.63;;;;;;;17.43;100.00;99440.94;5114138;28;20204;-66
2023/10/22 06:15:03;;;;;;;1.97;1.87;;;;;;;17.49;100.00;99437.97;5114800;28;20199;-67
2023/10/22 06:17:31;;;;;;;3.07;2.43;;;;;;;17.47;100.00;99407.91;5114234;28;20630;-67
2023/10/22 06:19:59;;;;;;;2.63;2.30;;;;;;;17.60;100.00;99427.88;5114543;28;20623;-67
2023/10/22 06:22:26;;;;;;;2.40;2.30;;;;;;;17.65;100.00;99445.72;5114636;28;20215;-67
2023/10/22 06:24:53;;;;;;;1.87;1.77;;;;;;;17.50;100.00;99400.78;5114178;28;20748;-67
2023/10/22 06:27:19;;;;;;;8.87;2.30;;;;;;;17.78;100.00;99423.34;5111218;28;20219;-67
2023/10/22 06:29:48;;;;;;;2.67;2.57;;;;;;;17.69;100.00;99432.50;5113098;28;20674;-67
2023/10/22 06:32:15;;;;;;;2.17;2.07;;;;;;;17.79;100.00;99423.28;5094055;28;20217;-67
2023/10/22 06:34:43;;;;;;;4.70;2.10;;;;;;;17.96;100.00;99424.88;5093498;28;20245;-66
2023/10/22 06:37:09;;;;;;;2.50;2.30;;;;;;;18.04;100.00;99411.41;5097973;28;20196;-67
2023/10/22 06:39:36;;;;;;;2.30;2.20;;;;;;;18.06;100.00;99412.19;5093687;28;20214;-67
2023/10/22 06:42:03;;;;;;;1.93;1.83;;;;;;;18.14;100.00;99434.13;5105020;28;20291;-67
2023/10/22 06:44:30;;;;;;;7.40;2.88;;;;;;;18.29;100.00;99445.31;5103242;27;20526;-67
2023/10/22 06:46:57;;;;;;;5.10;3.50;;;;;;;18.52;100.00;99413.63;5102799;28;20856;-65
2023/10/22 06:49:23;;;;;;;2.70;2.60;;;;;;;18.54;100.00;99400.56;5112576;27;20203;-65
2023/10/22 06:51:51;;;;;;;3.07;2.87;;;;;;;18.78;100.00;99418.03;5110563;27;20695;-65
2023/10/22 06:54:18;;;;;;;2.53;2.33;;;;;;;18.87;100.00;99435.63;5111293;27;20197;-65
2023/10/22 06:56:45;;;;;;;2.40;2.30;;;;;;;18.94;100.00;99461.22;5108696;27;20201;-65
2023/10/22 06:59:11;;;;;;;1.90;1.80;;;;;;;19.04;100.00;99446.69;5108823;27;20198;-65
2023/10/22 07:01:38;;;;;;;2.80;2.57;;;;;;;19.10;100.00;99461.91;5108803;27;20714;-65
2023/10/22 07:04:05;;;;;;;2.37;2.17;;;;;;;19.12;100.00;99460.06;5104596;27;20260;-65
2023/10/22 07:06:32;;;;;;;3.90;3.00;;;;;;;19.08;100.00;99417.00;5114468;27;20250;-65
2023/10/22 07:09:00;;;;;;;1.90;1.80;;;;;;;19.33;100.00;99453.47;5108687;27;20255;-65
2023/10/22 07:11:27;;;;;;;3.10;2.73;;;;;;;19.37;100.00;99467.94;5103169;27;20754;-65
2023/10/22 07:13:53;;;;;;;5.77;2.80;;;;;;;19.36;100.00;99437.66;5106900;27;20622;-65
2023/10/22 07:16:20;;;;;;;2.73;2.50;;;;;;;19.52;100.00;99453.94;5108262;28;20228;-65
2023/10/22 07:18:47;;;;;;;2.80;2.60;;;;;;;19.65;100.00;99434.00;5102754;27;20270;-65
2023/10/22 07:21:13;;;;;;;2.90;2.77;;;;;;;19.79;100.00;99457.34;5109574;27;20278;-65
2023/10/22 07:23:40;;;;;;;2.93;2.73;;;;;;;19.81;99.07;99460.66;5110004;28;20269;-65
2023/10/22 07:26:08;;;;;;;6.43;2.70;;;;;;;19.98;99.22;99435.28;5109534;27;20693;-65
2023/10/22 07:28:41;;;;;;;4.00;2.87;;;;;;;20.14;97.79;99467.13;5108028;27;20245;-65
2023/10/22 07:31:07;;;;;;;3.93;2.93;;;;;;;20.33;98.05;99446.72;5092327;28;20195;-65
2023/10/22 07:33:34;;;;;;;2.33;2.23;;;;;;;20.32;97.53;99430.28;5111110;27;20195;-65
2023/10/22 07:36:03;;;;;;;2.00;1.90;;;;;;;20.41;97.01;99449.66;5112514;27;20209;-65
2023/10/22 07:38:32;;;;;;;4.67;3.57;;;;;;;20.43;96.99;99411.31;5093495;27;20579;-66
2023/10/22 07:40:59;;;;;;;5.87;3.97;;;;;;;20.53;97.36;99443.56;5108624;28;20215;-65
2023/10/22 07:43:28;;;;;;;4.27;3.90;;;;;;;20.59;97.74;99443.13;5107522;28;20205;-65
2023/10/22 07:46:00;;;;;;;8.17;5.57;;;;;;;20.63;96.96;99421.16;5111719;28;20615;-65
2023/10/22 07:48:27;;;;;;;2.67;2.57;;;;;;;20.76;96.63;99444.56;5108814;27;20205;-65
2023/10/22 07:50:54;;;;;;;4.20;2.67;;;;;;;20.89;95.81;99445.34;5110945;28;20199;-65
2023/10/22 07:53:21;;;;;;;5.07;3.10;;;;;;;21.06;95.08;99442.38;5105403;27;20658;-65
2023/10/22 07:55:48;;;;;;;13.07;3.90;;;;;;;21.11;94.73;99442.06;5102635;28;20206;-66
2023/10/22 07:58:14;;;;;;;23.07;8.30;;;;;;;21.14;95.78;99449.66;5108913;28;20255;-65
2023/10/22 08:00:42;;;;;;;4.23;2.73;;;;;;;21.22;94.69;99444.72;5112047;28;20670;-65
2023/10/22 08:03:09;;;;;;;3.27;2.67;;;;;;;21.21;94.86;99448.25;5108054;27;20199;-65
2023/10/22 08:05:36;;;;;;;2.73;2.50;;;;;;;21.31;94.82;99446.66;5101948;28;20214;-65
2023/10/22 08:08:02;;;;;;;3.07;2.87;;;;;;;21.38;93.54;99438.28;5104883;28;20201;-65
2023/10/22 08:10:29;;;;;;;2.90;2.57;;;;;;;21.49;93.02;99440.06;5101485;28;20199;-65
2023/10/22 08:12:56;;;;;;;2.87;2.57;;;;;;;21.52;93.04;99439.84;5097060;28;20252;-65
2023/10/22 08:15:22;;;;;;;6.27;2.20;;;;;;;21.56;93.40;99450.88;5101187;28;20199;-65
2023/10/22 08:17:51;;;;;;;2.50;2.40;;;;;;;21.58;92.82;99455.06;5106575;27;20283;-65
2023/10/22 08:20:17;;;;;;;2.37;2.17;;;;;;;21.66;92.76;99452.69;5105245;28;20271;-65
2023/10/22 08:22:44;;;;;;;4.60;2.57;;;;;;;21.69;92.39;99457.69;5106148;28;20221;-65
2023/10/22 08:25:11;;;;;;;2.30;2.20;;;;;;;21.75;92.16;99440.72;5108688;27;20678;-65
2023/10/22 08:27:37;;;;;;;2.70;2.50;;;;;;;21.78;92.42;99433.50;5100374;28;20215;-66
2023/10/22 08:30:05;;;;;;;1.90;1.80;;;;;;;21.68;91.27;99439.56;5101230;28;20203;-65
2023/10/22 08:32:33;;;;;;;4.20;2.33;;;;;;;21.64;92.60;99431.13;5096660;28;20247;-65
2023/10/22 08:35:02;;;;;;;2.83;2.73;;;;;;;21.67;92.82;99436.09;5103194;28;20257;-65
2023/10/22 08:37:28;;;;;;;3.20;2.87;;;;;;;21.65;92.92;99437.97;5101439;28;20263;-65
2023/10/22 08:39:56;;;;;;;4.77;3.73;;;;;;;21.61;92.93;99438.34;5108070;27;20250;-65
2023/10/22 08:42:24;;;;;;;5.93;3.37;;;;;;;21.59;92.74;99435.84;5110837;27;20678;-65
2023/10/22 08:44:52;;;;;;;3.43;3.23;;;;;;;21.63;93.19;99432.06;5106420;28;20202;-65
2023/10/22 08:47:18;;;;;;;5.07;3.13;;;;;;;21.64;93.05;99423.28;5110728;28;20225;-65
2023/10/22 08:49:49;;;;;;;2.50;2.30;;;;;;;21.67;92.34;99424.84;5104702;28;20207;-65
2023/10/22 08:52:17;;;;;;;2.97;2.67;;;;;;;21.70;92.82;99417.59;5096865;28;20297;-65
2023/10/22 08:54:45;;;;;;;4.03;3.63;;;;;;;21.73;92.95;99422.59;5103437;27;20203;-65
2023/10/22 08:57:11;;;;;;;4.27;3.00;;;;;;;21.74;93.01;99419.03;5102420;28;20201;-65
2023/10/22 08:59:39;;;;;;;3.77;2.30;;;;;;;21.76;92.82;99421.53;5100334;28;20194;-65
2023/10/22 09:02:09;;;;;;;2.60;2.50;;;;;;;21.75;92.78;99418.06;5097359;27;20355;-65
2023/10/22 09:04:36;;;;;;;2.07;1.97;;;;;;;21.77;93.08;99405.75;5100373;28;20206;-65
2023/10/22 09:07:03;;;;;;;3.77;2.60;;;;;;;21.72;92.94;99404.44;5104920;28;20199;-65
2023/10/22 09:09:35;;;;;;;2.30;2.10;;;;;;;21.71;93.84;99400.97;5100337;28;20251;-65
2023/10/22 09:12:02;;;;;;;2.37;2.27;;;;;;;21.67;93.02;99386.53;5108400;28;20628;-65
2023/10/22 09:14:30;;;;;;;2.43;2.30;;;;;;;21.73;93.19;99390.44;5106993;28;20656;-65
2023/10/22 09:16:57;;;;;;;2.57;1.50;;;;;;;21.72;93.20;99394.81;5106535;28;20230;-65
2023/10/22 09:19:39;;;;;;;2.70;2.50;;;;;;;21.68;93.25;99376.94;5109158;28;20195;-65
2023/10/22 09:22:06;;;;;;;3.20;2.80;;;;;;;21.76;93.79;99382.38;5104095;28;20214;-65
2023/10/22 09:24:35;;;;;;;2.80;2.70;;;;;;;21.83;92.40;99387.03;5111696;28;20195;-65
2023/10/22 09:27:02;;;;;;;2.50;2.40;;;;;;;21.87;92.50;99387.63;5097111;28;20195;-65
2023/10/22 09:29:31;;;;;;;2.40;2.13;;;;;;;21.82;93.13;99385.34;5097315;28;20203;-65
2023/10/22 09:31:59;;;;;;;2.47;2.37;;;;;;;21.83;92.22;99376.59;5116465;28;20277;-65
2023/10/22 09:34:27;;;;;;;7.70;2.80;;;;;;;21.85;93.13;99377.28;5115360;28;20319;-67
2023/10/22 09:36:55;;;;;;;3.33;2.37;;;;;;;21.88;91.80;99382.28;5115725;27;20635;-65
2023/10/22 09:39:36;;;;;;;3.73;1.53;;;;;;;21.91;91.95;99378.63;5106836;27;20199;-66
2023/10/22 09:42:06;;;;;;;4.53;2.10;;;;;;;21.91;92.05;99368.19;5101386;27;20634;-66
2023/10/22 09:44:33;;;;;;;2.27;2.17;;;;;;;21.89;92.76;99360.47;5115820;28;20298;-66
2023/10/22 09:47:02;;;;;;;2.60;2.10;;;;;;;21.90;92.25;99362.16;5117209;27;20682;-65
2023/10/22 09:49:30;;;;;;;2.30;1.87;;;;;;;21.94;92.07;99354.88;5116379;27;20201;-66
2023/10/22 09:51:59;;;;;;;3.70;2.47;;;;;;;21.92;91.63;99356.78;5116706;27;20247;-66
2023/10/22 09:54:37;;;;;;;3.43;1.80;;;;;;;21.95;91.95;99353.94;5115277;27;20682;-66
2023/10/22 09:57:08;;;;;;;1.67;1.57;;;;;;;22.00;91.76;99351.84;5116769;27;20198;-66
2023/10/22 09:59:35;;;;;;;1.80;1.70;;;;;;;22.07;91.76;99352.19;5116916;27;20191;-66
2023/10/22 10:02:04;;;;;;;1.83;1.73;;;;;;;22.05;91.16;99356.66;5117354;28;20248;-66
2023/10/22 10:04:33;;;;;;;1.87;1.77;;;;;;;22.09;91.48;99350.28;5116877;27;20286;-66
2023/10/22 10:07:04;;;;;;;2.13;2.03;;;;;;;22.16;90.70;99356.69;5115594;28;20226;-66
2023/10/22 10:09:33;;;;;;;1.67;1.57;;;;;;;22.13;90.50;99355.16;5116982;27;20264;-66
2023/10/22 10:12:05;;;;;;;2.37;2.17;;;;;;;22.16;90.19;99357.50;5107981;27;20681;-66
2023/10/22 10:14:45;;;;;;;2.57;2.37;;;;;;;22.23;90.74;99350.03;5107188;27;20284;-67
2023/10/22 10:17:14;;;;;;;2.90;2.20;;;;;;;22.30;90.73;99343.34;5113370;28;20226;-67
2023/10/22 10:19:41;;;;;;;1.73;1.63;;;;;;;22.35;90.23;99341.22;5112351;28;20203;-66
2023/10/22 10:22:08;;;;;;;2.00;1.90;;;;;;;22.33;89.35;99343.09;5106204;27;20318;-66
2023/10/22 10:24:36;;;;;;;1.83;1.60;;;;;;;22.29;90.76;99326.03;5110865;27;20194;-66
2023/10/22 10:27:26;;;;;;;3.30;1.57;;;;;;;22.37;90.87;99331.47;5115419;27;20199;-67
2023/10/22 10:30:20;;;;;;;1.93;1.83;;;;;;;22.45;89.84;99329.09;5111940;28;20236;-66
2023/10/22 10:32:49;;;;;;;1.97;1.87;;;;;;;22.58;89.00;99327.16;5113182;28;20554;-66
2023/10/22 10:35:18;;;;;;;2.23;1.97;;;;;;;22.59;88.94;99322.72;5112112;27;20221;-66
2023/10/22 10:38:18;;;;;;;2.53;1.60;;;;;;;22.63;89.07;99308.47;5107178;27;20259;-66
2023/10/22 10:40:46;;;;;;;1.23;1.23;;;;;;;22.69;87.79;99293.16;5101941;28;20206;-66
2023/10/22 10:43:15;;;;;;;2.57;2.47;;;;;;;22.74;88.21;99275.34;5107751;28;20218;-66
2023/10/22 10:46:22;;;;;;;3.50;2.17;;;;;;;22.84;88.65;99273.59;5111772;28;20210;-66
2023/10/22 10:48:52;;;;;;;3.33;1.93;;;;;;;22.95;87.05;99263.09;5112741;27;20209;-66
2023/10/22 10:51:20;;;;;;;1.80;1.70;;;;;;;23.19;87.35;99264.63;5101500;27;20203;-66
2023/10/22 10:54:14;;;;;;;2.30;2.13;;;;;;;23.29;85.66;99263.72;5101888;27;20195;-66
2023/10/22 10:56:49;;;;;;;5.60;5.13;;;;;;;23.29;85.34;99265.50;5105887;27;20202;-66
2023/10/22 10:59:28;;;;;;;11.23;7.90;;;;;;;23.35;85.47;99267.59;5113294;27;20705;-66
2023/10/22 11:02:07;;;;;;;8.40;7.17;;;;;;;23.45;84.94;99265.91;5109425;27;20214;-66
2023/10/22 11:04:39;;;;;;;3.07;2.97;;;;;;;23.46;84.56;99262.31;5113823;27;20281;-66
2023/10/22 11:07:06;;;;;;;3.03;2.77;;;;;;;23.57;84.68;99275.31;5103017;28;20192;-66
2023/10/22 11:09:34;;;;;;;2.83;2.70;;;;;;;23.67;84.12;99276.19;5106087;28;20198;-66
2023/10/22 11:12:04;;;;;;;4.33;3.97;;;;;;;23.75;83.26;99278.16;5112115;28;20293;-66
2023/10/22 11:14:31;;;;;;;2.37;2.17;;;;;;;23.83;85.15;99276.53;5110011;28;20292;-66
2023/10/22 11:16:59;;;;;;;2.60;2.47;;;;;;;23.94;83.48;99271.16;5102455;28;20283;-66
2023/10/22 11:19:27;;;;;;;6.53;2.57;;;;;;;23.89;81.46;99249.81;5112886;28;20891;-66
2023/10/22 11:21:56;;;;;;;3.27;2.97;;;;;;;24.07;82.16;99262.25;5098947;27;20218;-66
2023/10/22 11:24:25;;;;;;;8.33;5.97;;;;;;;24.18;80.84;99251.69;5096392;28;20217;-66
2023/10/22 11:26:53;;;;;;;5.43;4.57;;;;;;;24.22;80.09;99247.84;5096698;27;20247;-66
2023/10/22 11:29:21;;;;;;;3.50;3.30;;;;;;;24.25;79.65;99244.94;5098264;28;20203;-66
2023/10/22 11:31:56;;;;;;;3.17;2.87;;;;;;;24.20;79.24;99223.56;5106465;27;20201;-66
2023/10/22 11:34:23;;;;;;;3.40;1.97;;;;;;;24.34;79.89;99228.38;5111026;28;20201;-66